createdAt,value
2019-03-05T00:01:23.919Z,98804.45
2019-03-05T00:03:54.714Z,98807.62
2019-03-05T00:06:25.494Z,98801.88
2019-03-05T00:08:56.275Z,98805.99
2019-03-05T00:11:26.997Z,98803.20
2019-03-05T00:13:57.976Z,98798.35
2019-03-05T00:16:28.742Z,98799.30
2019-03-05T00:18:59.597Z,98800.12
2019-03-05T00:21:30.304Z,98806.63
2019-03-05T00:24:38.919Z,98813.73
2019-03-05T00:27:09.704Z,98808.69
2019-03-05T00:30:30.054Z,98798.70
2019-03-05T00:33:26.841Z,98795.48
2019-03-05T00:36:20.730Z,98800.13
2019-03-05T00:39:19.818Z,98794.88
2019-03-05T00:42:29.313Z,98792.01
2019-03-05T00:45:27.408Z,98794.67
2019-03-05T00:48:38.734Z,98795.71
2019-03-05T00:51:49.698Z,98810.94
2019-03-05T00:54:50.591Z,98806.92
2019-03-05T00:57:46.257Z,98803.63
2019-03-05T01:01:28.339Z,98800.95
2019-03-05T01:04:30.027Z,98797.75
2019-03-05T01:07:01.140Z,98803.09
2019-03-05T01:09:32.082Z,98801.33
2019-03-05T01:12:02.840Z,98798.96
2019-03-05T01:14:34.078Z,98797.17
2019-03-05T01:17:06.768Z,98798.42
2019-03-05T01:19:37.609Z,98798.22
2019-03-05T01:22:08.491Z,98799.52
2019-03-05T01:24:39.380Z,98794.67
2019-03-05T01:27:10.281Z,98802.02
2019-03-05T01:29:41.381Z,98792.75
2019-03-05T01:32:31.465Z,98804.69
2019-03-05T01:35:15.818Z,98805.52
2019-03-05T01:37:46.702Z,98805.73
2019-03-05T01:40:45.622Z,98805.44
2019-03-05T01:43:17.490Z,98805.31
2019-03-05T01:45:48.443Z,98795.92
2019-03-05T01:48:19.952Z,98792.13
2019-03-05T01:50:50.812Z,98790.07
2019-03-05T01:53:21.431Z,98774.16
2019-03-05T01:55:52.197Z,98777.12
2019-03-05T01:58:22.992Z,98779.28
2019-03-05T02:00:53.883Z,98784.52
2019-03-05T02:03:24.913Z,98781.04
2019-03-05T02:05:55.873Z,98782.79
2019-03-05T02:08:26.747Z,98786.92
2019-03-05T02:10:57.789Z,98797.44
2019-03-05T02:13:28.618Z,98798.66
2019-03-05T02:15:59.386Z,98798.68
2019-03-05T02:18:30.386Z,98798.59
2019-03-05T02:21:01.260Z,98796.63
2019-03-05T02:23:40.933Z,98797.97
2019-03-05T02:26:47.454Z,98785.50
2019-03-05T02:29:42.216Z,98787.34
2019-03-05T02:32:55.622Z,98778.41
2019-03-05T02:35:51.574Z,98787.36
2019-03-05T02:38:58.525Z,98775.22
2019-03-05T02:42:05.962Z,98773.36
2019-03-05T02:45:03.308Z,98783.13
2019-03-05T02:48:13.880Z,98783.64
2019-03-05T02:51:27.075Z,98784.59
2019-03-05T02:54:29.914Z,98778.52
2019-03-05T02:57:08.252Z,98783.55
2019-03-05T02:59:39.641Z,98786.22
2019-03-05T03:02:30.120Z,98790.33
2019-03-05T03:05:34.581Z,98800.01
2019-03-05T03:08:05.345Z,98790.34
2019-03-05T03:10:36.239Z,98781.61
2019-03-05T03:13:07.115Z,98786.12
2019-03-05T03:15:37.873Z,98779.73
2019-03-05T03:18:08.580Z,98779.95
2019-03-05T03:20:39.351Z,98772.95
2019-03-05T03:23:10.348Z,98777.80
2019-03-05T03:25:41.121Z,98775.30
2019-03-05T03:28:12.023Z,98774.37
2019-03-05T03:30:42.856Z,98764.92
2019-03-05T03:33:14.561Z,98771.70
2019-03-05T03:35:45.663Z,98775.73
2019-03-05T03:38:16.442Z,98783.97
2019-03-05T03:40:47.229Z,98798.68
2019-03-05T03:43:17.976Z,98790.34
2019-03-05T03:45:48.773Z,98797.87
2019-03-05T03:48:19.617Z,98801.27
2019-03-05T03:50:50.415Z,98805.78
2019-03-05T03:53:21.087Z,98805.56
2019-03-05T03:55:51.879Z,98801.45
2019-03-05T03:58:22.766Z,98802.16
2019-03-05T04:00:53.722Z,98811.34
2019-03-05T04:03:24.787Z,98816.28
2019-03-05T04:05:55.525Z,98814.83
2019-03-05T04:08:26.308Z,98823.88
2019-03-05T04:10:57.095Z,98822.31
2019-03-05T04:13:28.071Z,98827.37
2019-03-05T04:15:58.726Z,98832.63
2019-03-05T04:18:29.593Z,98841.05
2019-03-05T04:21:00.406Z,98830.55
2019-03-05T04:23:31.087Z,98829.00
2019-03-05T04:26:01.875Z,98833.97
2019-03-05T04:28:32.555Z,98841.99
2019-03-05T04:31:03.470Z,98835.93
2019-03-05T04:33:34.370Z,98830.76
2019-03-05T04:36:05.303Z,98837.56
2019-03-05T04:38:36.129Z,98837.70
2019-03-05T04:41:06.998Z,98840.80
2019-03-05T04:43:37.677Z,98832.35
2019-03-05T04:46:27.453Z,98825.28
2019-03-05T04:49:36.261Z,98832.86
2019-03-05T04:52:13.064Z,98832.73
2019-03-05T04:54:43.986Z,98827.22
2019-03-05T04:57:14.825Z,98832.47
2019-03-05T04:59:45.797Z,98832.69
2019-03-05T05:02:16.658Z,98837.20
2019-03-05T05:04:47.588Z,98834.11
2019-03-05T05:07:18.436Z,98839.38
2019-03-05T05:09:49.342Z,98835.48
2019-03-05T05:12:20.246Z,98834.68
2019-03-05T05:14:51.002Z,98848.86
2019-03-05T05:17:21.778Z,98838.87
2019-03-05T05:19:52.765Z,98843.42
2019-03-05T05:22:23.657Z,98834.06
2019-03-05T05:24:54.666Z,98837.98
2019-03-05T05:27:25.465Z,98837.15
2019-03-05T05:29:56.329Z,98833.25
2019-03-05T05:32:27.133Z,98843.06
2019-03-05T05:34:57.796Z,98838.20
2019-03-05T05:37:28.489Z,98828.33
2019-03-05T05:40:24.273Z,98829.96
2019-03-05T05:42:54.958Z,98829.96
2019-03-05T05:45:27.698Z,98828.95
2019-03-05T05:47:58.533Z,98832.95
2019-03-05T05:50:29.441Z,98841.83
2019-03-05T05:53:00.211Z,98851.08
2019-03-05T05:55:30.920Z,98845.11
2019-03-05T05:58:01.686Z,98841.42
2019-03-05T06:00:32.748Z,98838.32
2019-03-05T06:03:03.495Z,98834.30
2019-03-05T06:05:34.441Z,98834.93
2019-03-05T06:08:05.334Z,98833.89
2019-03-05T06:10:37.185Z,98834.93
2019-03-05T06:13:08.031Z,98824.94
2019-03-05T06:15:38.917Z,98825.86
2019-03-05T06:18:09.844Z,98822.78
2019-03-05T06:20:42.660Z,98832.04
2019-03-05T06:23:13.265Z,98823.89
2019-03-05T06:25:44.121Z,98837.28
2019-03-05T06:28:15.055Z,98829.88
2019-03-05T06:30:46.093Z,98834.09
2019-03-05T06:33:17.548Z,98829.98
2019-03-05T06:35:48.592Z,98829.89
2019-03-05T06:38:19.475Z,98826.59
2019-03-05T06:40:50.051Z,98830.40
2019-03-05T06:43:20.939Z,98831.44
2019-03-05T06:45:51.661Z,98843.69
2019-03-05T06:48:22.443Z,98848.52
2019-03-05T06:50:53.534Z,98856.74
2019-03-05T06:53:24.214Z,98861.38
2019-03-05T06:55:55.058Z,98865.10
2019-03-05T06:58:25.926Z,98870.36
2019-03-05T07:00:56.585Z,98879.41
2019-03-05T07:03:27.571Z,98884.34
2019-03-05T07:06:57.085Z,98884.24
2019-03-05T07:10:20.503Z,98895.58
2019-03-05T07:13:10.118Z,98894.65
2019-03-05T07:16:09.735Z,98906.09
2019-03-05T07:18:58.555Z,98914.42
2019-03-05T07:22:08.492Z,98920.91
2019-03-05T07:25:04.666Z,98918.98
2019-03-05T07:27:40.634Z,98925.34
2019-03-05T07:30:21.280Z,98935.25
2019-03-05T07:32:52.546Z,98944.42
2019-03-05T07:35:31.434Z,98950.07
2019-03-05T07:38:02.287Z,98955.03
2019-03-05T07:40:33.102Z,98964.31
2019-03-05T07:43:03.983Z,98965.74
2019-03-05T07:45:34.871Z,98962.77
2019-03-05T07:48:05.785Z,98966.80
2019-03-05T07:50:37.238Z,98967.50
2019-03-05T07:53:07.902Z,98965.23
2019-03-05T07:55:38.994Z,98955.16
2019-03-05T07:58:09.809Z,98949.47
2019-03-05T08:00:40.770Z,98949.56
2019-03-05T08:03:11.489Z,98955.12
2019-03-05T08:05:42.773Z,98954.70
2019-03-05T08:08:49.097Z,98965.94
2019-03-05T08:11:20.177Z,98962.11
2019-03-05T08:14:12.785Z,98956.86
2019-03-05T08:16:43.713Z,98957.66
2019-03-05T08:19:14.426Z,98947.55
2019-03-05T08:21:45.089Z,98950.13
2019-03-05T08:24:15.969Z,98958.17
2019-03-05T08:26:46.861Z,98958.66
2019-03-05T08:29:17.669Z,98969.30
2019-03-05T08:31:48.417Z,98966.63
2019-03-05T08:34:19.030Z,98964.45
2019-03-05T08:36:49.693Z,98960.42
2019-03-05T08:39:20.470Z,98960.94
2019-03-05T08:41:51.229Z,98958.25
2019-03-05T08:44:22.065Z,98962.49
2019-03-05T08:46:52.916Z,98956.66
2019-03-05T08:49:23.676Z,98953.65
2019-03-05T08:51:54.407Z,98952.23
2019-03-05T08:54:25.190Z,98943.70
2019-03-05T08:56:56.088Z,98960.08
2019-03-05T08:59:26.820Z,98956.43
2019-03-05T09:01:57.573Z,98967.78
2019-03-05T09:04:28.352Z,98973.94
2019-03-05T09:06:59.221Z,98976.30
2019-03-05T09:09:30.078Z,98979.44
2019-03-05T09:12:01.062Z,98992.11
2019-03-05T09:14:34.363Z,98996.91
2019-03-05T09:17:04.971Z,98980.33
2019-03-05T09:19:35.759Z,98980.00
2019-03-05T09:22:06.354Z,98971.13
2019-03-05T09:24:37.845Z,98959.34
2019-03-05T09:27:08.569Z,98956.55
2019-03-05T09:29:39.308Z,98962.02
2019-03-05T09:32:09.993Z,98951.56
2019-03-05T09:34:40.873Z,98955.61
2019-03-05T09:37:11.683Z,98947.09
2019-03-05T09:39:42.573Z,98944.63
2019-03-05T09:42:13.454Z,98942.92
2019-03-05T09:44:44.220Z,98944.31
2019-03-05T09:47:15.202Z,98941.69
2019-03-05T09:49:45.894Z,98947.58
2019-03-05T09:52:16.834Z,98945.02
2019-03-05T09:54:48.329Z,98935.84
2019-03-05T09:57:19.221Z,98931.97
2019-03-05T09:59:49.954Z,98930.95
2019-03-05T10:02:20.639Z,98926.50
2019-03-05T10:04:51.522Z,98913.40
2019-03-05T10:07:22.158Z,98919.08
2019-03-05T10:09:52.837Z,98915.38
2019-03-05T10:12:23.526Z,98920.74
2019-03-05T10:14:54.358Z,98923.70
2019-03-05T10:17:25.187Z,98919.88
2019-03-05T10:19:55.827Z,98919.17
2019-03-05T10:22:26.421Z,98925.70
2019-03-05T10:25:05.617Z,98928.96
2019-03-05T10:27:30.563Z,98932.47
2019-03-05T10:30:01.324Z,98938.70
2019-03-05T10:32:32.442Z,98937.92
2019-03-05T10:35:03.241Z,98945.75
2019-03-05T10:37:35.273Z,98950.69
2019-03-05T10:40:06.157Z,98955.94
2019-03-05T10:42:37.150Z,98940.55
2019-03-05T10:45:09.146Z,98948.83
2019-03-05T10:47:40.078Z,98943.42
2019-03-05T10:50:15.546Z,98954.88
2019-03-05T10:52:46.049Z,98951.13
2019-03-05T10:55:25.999Z,98944.53
2019-03-05T10:57:49.769Z,98929.71
2019-03-05T11:00:28.745Z,98939.77
2019-03-05T11:02:59.805Z,98920.13
2019-03-05T11:05:34.374Z,98920.23
2019-03-05T11:08:07.009Z,98912.71
2019-03-05T11:10:38.185Z,98921.67
2019-03-05T11:13:09.821Z,98924.23
2019-03-05T11:15:41.669Z,98920.10
2019-03-05T11:18:13.178Z,98912.78
2019-03-05T11:20:43.954Z,98911.08
2019-03-05T11:23:14.686Z,98908.52
2019-03-05T11:25:45.466Z,98905.94
2019-03-05T11:28:16.360Z,98910.56
2019-03-05T11:30:47.298Z,98904.17
2019-03-05T11:33:18.061Z,98898.20
2019-03-05T11:35:48.969Z,98892.97
2019-03-05T11:38:20.164Z,98885.36
2019-03-05T11:40:51.475Z,98886.93
2019-03-05T11:43:22.267Z,98885.35
2019-03-05T11:45:53.218Z,98883.72
2019-03-05T11:48:23.946Z,98877.28
2019-03-05T11:50:54.718Z,98881.03
2019-03-05T11:53:25.554Z,98871.50
2019-03-05T11:55:58.176Z,98874.19
2019-03-05T11:58:28.853Z,98871.91
2019-03-05T12:01:09.734Z,98868.46
2019-03-05T12:03:40.662Z,98863.98
2019-03-05T12:06:11.730Z,98862.71
2019-03-05T12:08:42.443Z,98859.79
2019-03-05T12:11:13.222Z,98859.95
2019-03-05T12:13:44.078Z,98861.22
2019-03-05T12:16:15.852Z,98848.33
2019-03-05T12:18:46.613Z,98854.23
2019-03-05T12:21:17.639Z,98851.05
2019-03-05T12:23:48.473Z,98844.56
2019-03-05T12:26:19.259Z,98850.96
2019-03-05T12:28:50.132Z,98843.13
2019-03-05T12:31:20.999Z,98841.55
2019-03-05T12:33:51.890Z,98840.06
2019-03-05T12:36:22.852Z,98836.83
2019-03-05T12:38:53.500Z,98833.39
2019-03-05T12:41:24.207Z,98834.02
2019-03-05T12:43:54.973Z,98834.81
2019-03-05T12:46:26.631Z,98828.27
2019-03-05T12:48:57.424Z,98825.58
2019-03-05T12:51:28.371Z,98826.13
2019-03-05T12:53:59.115Z,98829.38
2019-03-05T12:56:30.898Z,98833.54
2019-03-05T12:59:01.790Z,98826.14
2019-03-05T13:01:34.893Z,98824.86
2019-03-05T13:04:05.309Z,98831.36
2019-03-05T13:06:36.089Z,98830.02
2019-03-05T13:09:17.619Z,98825.41
2019-03-05T13:11:46.587Z,98837.54
2019-03-05T13:14:18.619Z,98831.95
2019-03-05T13:16:49.466Z,98828.31
2019-03-05T13:19:20.267Z,98826.45
2019-03-05T13:21:51.149Z,98818.80
2019-03-05T13:24:21.938Z,98825.58
2019-03-05T13:26:54.379Z,98827.82
2019-03-05T13:29:25.140Z,98827.23
2019-03-05T13:31:56.020Z,98836.09
2019-03-05T13:34:27.768Z,98831.34
2019-03-05T13:37:00.829Z,98831.03
2019-03-05T13:39:30.980Z,98831.87
2019-03-05T13:42:01.815Z,98845.78
2019-03-05T13:44:38.669Z,98843.52
2019-03-05T13:47:10.223Z,98841.34
2019-03-05T13:50:17.485Z,98854.14
2019-03-05T13:53:34.769Z,98842.93
2019-03-05T13:56:37.798Z,98839.23
2019-03-05T13:59:37.983Z,98838.16
2019-03-05T14:02:10.706Z,98834.88
2019-03-05T14:05:12.555Z,98837.34
2019-03-05T14:08:42.163Z,98837.05
2019-03-05T14:11:13.214Z,98828.05
2019-03-05T14:13:44.022Z,98828.70
2019-03-05T14:16:16.979Z,98837.55
2019-03-05T14:18:47.733Z,98832.42
2019-03-05T14:21:18.603Z,98829.72
2019-03-05T14:23:49.787Z,98837.63
2019-03-05T14:26:20.659Z,98835.68
2019-03-05T14:28:51.868Z,98832.33
2019-03-05T14:31:22.668Z,98824.63
2019-03-05T14:33:53.483Z,98820.59
2019-03-05T14:36:24.313Z,98833.32
2019-03-05T14:38:55.209Z,98829.45
2019-03-05T14:41:26.272Z,98821.66
2019-03-05T14:43:57.476Z,98823.69
2019-03-05T14:46:28.469Z,98829.76
2019-03-05T14:48:59.330Z,98830.80
2019-03-05T14:51:30.148Z,98841.66
2019-03-05T14:54:00.972Z,98838.98
2019-03-05T14:56:31.826Z,98838.06
2019-03-05T14:59:04.193Z,98834.50
2019-03-05T15:01:35.042Z,98844.88
2019-03-05T15:04:05.989Z,98828.25
2019-03-05T15:06:36.599Z,98830.89
2019-03-05T15:09:07.835Z,98823.41
2019-03-05T15:11:39.014Z,98820.77
2019-03-05T15:14:09.782Z,98825.89
2019-03-05T15:16:41.170Z,98828.66
2019-03-05T15:19:20.912Z,98841.08
2019-03-05T15:21:44.538Z,98830.89
2019-03-05T15:24:15.352Z,98826.93
2019-03-05T15:26:46.175Z,98834.76
2019-03-05T15:29:16.967Z,98841.69
2019-03-05T15:31:47.684Z,98838.22
2019-03-05T15:34:18.399Z,98840.61
2019-03-05T15:36:51.927Z,98831.39
2019-03-05T15:39:21.771Z,98832.80
2019-03-05T15:41:52.458Z,98833.75
2019-03-05T15:44:23.373Z,98821.56
2019-03-05T15:46:54.101Z,98831.51
2019-03-05T15:49:24.942Z,98828.13
2019-03-05T15:51:55.534Z,98839.52
2019-03-05T15:54:26.378Z,98841.72
2019-03-05T15:56:57.073Z,98845.77
2019-03-05T15:59:27.883Z,98842.73
2019-03-05T16:01:58.586Z,98843.08
2019-03-05T16:04:29.543Z,98850.47
2019-03-05T16:07:00.452Z,98849.27
2019-03-05T16:09:34.969Z,98847.06
2019-03-05T16:12:05.932Z,98850.28
2019-03-05T16:14:36.046Z,98848.66
2019-03-05T16:17:06.931Z,98850.95
2019-03-05T16:19:37.806Z,98853.83
2019-03-05T16:22:08.404Z,98847.84
2019-03-05T16:24:39.367Z,98855.95
2019-03-05T16:27:10.288Z,98856.78
2019-03-05T16:29:41.276Z,98850.73
2019-03-05T16:32:31.055Z,98858.55
2019-03-05T16:35:13.272Z,98861.02
2019-03-05T16:38:08.990Z,98866.72
2019-03-05T16:41:17.051Z,98865.78
2019-03-05T16:44:07.979Z,98870.59
2019-03-05T16:47:00.420Z,98875.47
2019-03-05T16:49:45.901Z,98873.13
2019-03-05T16:52:33.123Z,98882.88
2019-03-05T16:55:20.855Z,98879.48
2019-03-05T16:58:13.539Z,98892.38
2019-03-05T17:01:03.590Z,98892.93
2019-03-05T17:04:05.666Z,98898.02
2019-03-05T17:07:05.063Z,98900.67
2019-03-05T17:10:11.024Z,98896.20
2019-03-05T17:12:42.240Z,98910.74
2019-03-05T17:15:15.460Z,98914.02
2019-03-05T17:17:46.475Z,98917.83
2019-03-05T17:20:17.229Z,98913.19
2019-03-05T17:22:48.143Z,98921.28
2019-03-05T17:25:18.917Z,98929.80
2019-03-05T17:27:49.938Z,98928.02
2019-03-05T17:30:21.393Z,98931.28
2019-03-05T17:32:52.303Z,98933.37
2019-03-05T17:35:35.205Z,98933.02
2019-03-05T17:38:07.876Z,98939.20
2019-03-05T17:40:39.179Z,98942.34
2019-03-05T17:43:10.831Z,98944.98
2019-03-05T17:45:41.988Z,98953.59
2019-03-05T17:48:12.878Z,98952.72
2019-03-05T17:50:43.609Z,98956.00
2019-03-05T17:53:14.679Z,98954.58
2019-03-05T17:55:46.155Z,98963.49
2019-03-05T17:58:17.286Z,98968.75
2019-03-05T18:00:48.951Z,98971.50
2019-03-05T18:03:20.867Z,98980.55
2019-03-05T18:05:51.759Z,98983.55
2019-03-05T18:08:23.517Z,98986.02
2019-03-05T18:10:54.759Z,98981.38
2019-03-05T18:13:25.675Z,98981.61
2019-03-05T18:15:57.691Z,98995.60
2019-03-05T18:18:28.598Z,98992.02
2019-03-05T18:20:59.663Z,98987.98
2019-03-05T18:23:30.458Z,98991.45
2019-03-05T18:26:01.282Z,98993.46
2019-03-05T18:28:33.433Z,98996.92
2019-03-05T18:31:04.110Z,98986.23
2019-03-05T18:33:35.003Z,98983.17
2019-03-05T18:36:05.887Z,98987.59
2019-03-05T18:38:36.919Z,98994.10
2019-03-05T18:41:07.802Z,99001.67
2019-03-05T18:43:38.683Z,99000.55
2019-03-05T18:46:09.639Z,98997.40
2019-03-05T18:48:40.422Z,98997.86
2019-03-05T18:51:11.426Z,98993.50
2019-03-05T18:53:42.198Z,98996.80
2019-03-05T18:56:14.136Z,98995.73
2019-03-05T18:58:44.946Z,99001.44
2019-03-05T19:01:15.896Z,99000.84
2019-03-05T19:03:46.709Z,99000.84
2019-03-05T19:06:17.683Z,98992.76
2019-03-05T19:08:48.554Z,98994.56
2019-03-05T19:11:19.874Z,98998.89
2019-03-05T19:13:50.915Z,98995.22
2019-03-05T19:16:21.714Z,98998.66
2019-03-05T19:18:52.512Z,99003.07
2019-03-05T19:21:23.510Z,98997.26
2019-03-05T19:23:54.295Z,98995.73
2019-03-05T19:26:25.063Z,98996.05
2019-03-05T19:28:55.992Z,98995.73
2019-03-05T19:31:27.256Z,98994.56
2019-03-05T19:33:57.943Z,98998.74
2019-03-05T19:36:28.927Z,98986.77
2019-03-05T19:38:59.745Z,98988.58
2019-03-05T19:41:30.710Z,98979.40
2019-03-05T19:44:01.624Z,98985.39
2019-03-05T19:46:32.274Z,98988.08
2019-03-05T19:49:03.162Z,98994.98
2019-03-05T19:51:33.939Z,98994.75
2019-03-05T19:54:05.237Z,98988.45
2019-03-05T19:56:36.149Z,98982.91
2019-03-05T19:59:06.919Z,98991.48
2019-03-05T20:01:43.575Z,98989.97
2019-03-05T20:04:14.929Z,98990.70
2019-03-05T20:06:45.950Z,98999.89
2019-03-05T20:09:20.814Z,99002.72
2019-03-05T20:11:51.622Z,98997.72
2019-03-05T20:14:22.773Z,99007.00
2019-03-05T20:16:53.567Z,98998.07
2019-03-05T20:19:24.359Z,98995.97
2019-03-05T20:21:55.144Z,98992.31
2019-03-05T20:24:25.957Z,98994.30
2019-03-05T20:26:56.742Z,98996.91
2019-03-05T20:29:27.833Z,99002.89
2019-03-05T20:31:58.605Z,98999.80
2019-03-05T20:34:29.473Z,99008.80
2019-03-05T20:37:00.950Z,99005.30
2019-03-05T20:39:31.950Z,99010.59
2019-03-05T20:42:03.035Z,99005.48
2019-03-05T20:44:33.994Z,99011.22
2019-03-05T20:47:05.051Z,99008.86
2019-03-05T20:49:35.959Z,99011.88
2019-03-05T20:52:06.946Z,99002.64
2019-03-05T20:54:38.007Z,99001.73
2019-03-05T20:57:08.989Z,99005.36
2019-03-05T20:59:39.991Z,98998.76
2019-03-05T21:02:10.901Z,98987.92
2019-03-05T21:04:41.799Z,98987.92
2019-03-05T21:07:12.646Z,98988.31
2019-03-05T21:09:43.541Z,98988.02
2019-03-05T21:12:14.701Z,98991.64
2019-03-05T21:14:45.521Z,98984.17
2019-03-05T21:17:16.530Z,98980.94
2019-03-05T21:19:47.432Z,98981.29
2019-03-05T21:22:18.566Z,98977.70
2019-03-05T21:24:50.542Z,98971.94
2019-03-05T21:27:21.480Z,98974.50
2019-03-05T21:29:52.370Z,98980.72
2019-03-05T21:32:23.198Z,98980.56
2019-03-05T21:34:53.985Z,98979.20
2019-03-05T21:37:24.630Z,98979.24
2019-03-05T21:39:56.685Z,98989.47
2019-03-05T21:42:27.767Z,98981.75
2019-03-05T21:44:58.550Z,98984.75
2019-03-05T21:47:29.493Z,98978.18
2019-03-05T21:50:00.379Z,98975.92
2019-03-05T21:52:31.644Z,98968.71
2019-03-05T21:55:02.616Z,98972.84
2019-03-05T21:57:33.784Z,98968.00
2019-03-05T22:00:05.278Z,98974.73
2019-03-05T22:02:36.510Z,98978.95
2019-03-05T22:05:07.487Z,98976.07
2019-03-05T22:07:40.085Z,98976.89
2019-03-05T22:10:13.536Z,98979.87
2019-03-05T22:12:44.251Z,98970.81
2019-03-05T22:15:16.777Z,98972.25
2019-03-05T22:17:47.567Z,98979.14
2019-03-05T22:20:19.193Z,98974.33
2019-03-05T22:22:50.302Z,98976.59
2019-03-05T22:25:21.463Z,98976.17
2019-03-05T22:27:52.413Z,98977.72
2019-03-05T22:30:25.257Z,98975.88
2019-03-05T22:32:55.957Z,98972.47
2019-03-05T22:35:26.950Z,98968.62
2019-03-05T22:37:57.795Z,98970.91
2019-03-05T22:40:28.793Z,98973.59
2019-03-05T22:42:59.585Z,98971.72
2019-03-05T22:45:30.501Z,98969.16
2019-03-05T22:48:01.256Z,98969.66
2019-03-05T22:50:33.473Z,98975.75
2019-03-05T22:53:04.278Z,98971.64
2019-03-05T22:55:35.139Z,98971.43
2019-03-05T22:58:06.156Z,98974.83
2019-03-05T23:01:13.007Z,98975.02
2019-03-05T23:04:04.358Z,98967.08
2019-03-05T23:06:35.533Z,98966.38
2019-03-05T23:09:14.237Z,98964.60
2019-03-05T23:11:45.833Z,98965.23
2019-03-05T23:14:16.988Z,98957.48
2019-03-05T23:16:49.256Z,98959.13
2019-03-05T23:19:20.195Z,98957.87
2019-03-05T23:21:50.897Z,98953.02
2019-03-05T23:24:21.960Z,98954.45
2019-03-05T23:26:53.782Z,98945.50
2019-03-05T23:29:35.499Z,98940.23
2019-03-05T23:32:07.313Z,98934.25
2019-03-05T23:34:38.154Z,98931.91
2019-03-05T23:37:09.217Z,98927.23
2019-03-05T23:39:40.217Z,98926.14
2019-03-05T23:42:10.999Z,98923.11
2019-03-05T23:44:41.861Z,98919.61
2019-03-05T23:47:12.766Z,98926.37
2019-03-05T23:49:43.673Z,98912.78
2019-03-05T23:52:14.574Z,98907.94
2019-03-05T23:54:45.489Z,98903.64
2019-03-05T23:57:16.110Z,98906.56
2019-03-05T23:59:47.197Z,98894.53
